Satellite Precipitation Estimates (TXUS20 KWBC)
Issued by NWS

Home | Current Version | Previous Version | Text Only | Print | Product List | Glossary On
Versions: 1 2 3 4 5 6
000
SPTD31 TTPP 290348 CCA
SPECI
TTCP 290342Z 07005KT 9999 FEW016 26/24 Q1014 NOSIG=



USA.gov is the U.S. government's official web portal to all federal, state and local government web resources and services.